createdAt,value
2018-06-11T00:01:05.296Z,21.53
2018-06-11T00:03:32.845Z,22.63
2018-06-11T00:06:00.826Z,22.33
2018-06-11T00:08:28.979Z,22.67
2018-06-11T00:10:56.561Z,20.83
2018-06-11T00:13:24.201Z,21.37
2018-06-11T00:15:52.637Z,20.97
2018-06-11T00:18:20.284Z,21.97
2018-06-11T00:20:47.895Z,22.77
2018-06-11T00:23:15.489Z,23.17
2018-06-11T00:25:43.181Z,24.33
2018-06-11T00:28:10.859Z,21.80
2018-06-11T00:30:38.398Z,22.20
2018-06-11T00:33:05.985Z,22.43
2018-06-11T00:35:33.545Z,22.67
2018-06-11T00:38:01.406Z,23.07
2018-06-11T00:40:29.485Z,22.10
2018-06-11T00:42:57.057Z,23.73
2018-06-11T00:45:24.658Z,23.10
2018-06-11T00:47:52.241Z,28.30
2018-06-11T00:50:19.797Z,23.37
2018-06-11T00:52:47.361Z,25.93
2018-06-11T00:55:14.932Z,24.97
2018-06-11T00:57:42.529Z,23.63
2018-06-11T01:00:10.294Z,24.63
2018-06-11T01:02:37.882Z,26.47
2018-06-11T01:05:05.516Z,23.47
2018-06-11T01:07:33.570Z,25.20
2018-06-11T01:10:01.134Z,30.17
2018-06-11T01:12:28.769Z,25.50
2018-06-11T01:14:56.485Z,27.20
2018-06-11T01:17:24.044Z,26.47
2018-06-11T01:19:52.217Z,27.87
2018-06-11T01:22:19.942Z,30.73
2018-06-11T01:24:47.525Z,27.80
2018-06-11T01:27:15.131Z,28.23
2018-06-11T01:29:42.780Z,28.10
2018-06-11T01:32:10.313Z,30.20
2018-06-11T01:34:37.900Z,27.77
2018-06-11T01:37:05.630Z,29.30
2018-06-11T01:39:33.213Z,28.93
2018-06-11T01:42:00.811Z,28.70
2018-06-11T01:44:28.719Z,30.17
2018-06-11T01:46:56.276Z,28.27
2018-06-11T01:49:23.909Z,29.17
2018-06-11T01:51:51.454Z,28.67
2018-06-11T01:54:19.026Z,27.57
2018-06-11T01:56:46.614Z,27.57
2018-06-11T01:59:14.175Z,28.93
2018-06-11T02:01:41.814Z,27.17
2018-06-11T02:04:09.433Z,29.37
2018-06-11T02:06:37.008Z,28.30
2018-06-11T02:09:06.430Z,27.70
2018-06-11T02:11:34.129Z,30.63
2018-06-11T02:14:02.737Z,29.87
2018-06-11T02:16:30.337Z,30.70
2018-06-11T02:18:58.158Z,30.53
2018-06-11T02:21:25.733Z,29.90
2018-06-11T02:23:53.305Z,31.83
2018-06-11T02:26:20.862Z,33.13
2018-06-11T02:28:48.450Z,30.97
2018-06-11T02:31:16.205Z,30.00
2018-06-11T02:33:43.812Z,32.97
2018-06-11T02:36:11.377Z,30.77
2018-06-11T02:38:38.990Z,34.30
2018-06-11T02:41:06.628Z,33.97
2018-06-11T02:43:34.255Z,32.07
2018-06-11T02:46:01.812Z,33.60
2018-06-11T02:48:29.533Z,34.40
2018-06-11T02:50:57.365Z,35.87
2018-06-11T02:53:24.917Z,37.50
2018-06-11T02:55:52.581Z,34.00
2018-06-11T02:58:20.153Z,34.30
2018-06-11T03:00:47.757Z,36.77
2018-06-11T03:03:15.366Z,35.70
2018-06-11T03:05:42.946Z,36.17
2018-06-11T03:08:10.800Z,33.23
2018-06-11T03:10:38.369Z,37.00
2018-06-11T03:13:05.933Z,33.80
2018-06-11T03:15:33.572Z,37.07
2018-06-11T03:18:01.131Z,35.53
2018-06-11T03:20:28.711Z,36.80
2018-06-11T03:22:56.390Z,34.87
2018-06-11T03:25:24.189Z,35.97
2018-06-11T03:27:51.792Z,37.30
2018-06-11T03:30:19.496Z,40.03
2018-06-11T03:32:47.317Z,39.07
2018-06-11T03:35:14.877Z,37.77
2018-06-11T03:37:42.488Z,36.37
2018-06-11T03:40:10.073Z,37.23
2018-06-11T03:42:37.644Z,36.87
2018-06-11T03:45:05.216Z,40.37
2018-06-11T03:47:32.793Z,40.67
2018-06-11T03:50:00.390Z,37.07
2018-06-11T03:52:28.189Z,38.00
2018-06-11T03:54:56.054Z,39.70
2018-06-11T03:57:23.617Z,38.07
2018-06-11T03:59:51.251Z,40.70
2018-06-11T04:02:19.149Z,38.20
2018-06-11T04:04:46.721Z,37.70
2018-06-11T04:07:14.361Z,38.10
2018-06-11T04:09:41.901Z,38.77
2018-06-11T04:12:09.466Z,36.40
2018-06-11T04:14:37.049Z,41.67
2018-06-11T04:17:04.660Z,36.23
2018-06-11T04:19:32.295Z,38.57
2018-06-11T04:22:03.197Z,35.87
2018-06-11T04:24:30.753Z,39.10
2018-06-11T04:26:58.317Z,41.40
2018-06-11T04:29:26.009Z,41.00
2018-06-11T04:31:53.582Z,37.73
2018-06-11T04:34:21.309Z,39.47
2018-06-11T04:36:48.990Z,41.47
2018-06-11T04:39:16.561Z,35.67
2018-06-11T04:41:44.157Z,40.93
2018-06-11T04:44:11.701Z,35.63
2018-06-11T04:46:39.340Z,34.10
2018-06-11T04:49:07.021Z,32.97
2018-06-11T04:51:34.657Z,36.93
2018-06-11T04:54:02.229Z,37.90
2018-06-11T04:56:29.815Z,35.13
2018-06-11T04:58:57.380Z,39.77
2018-06-11T05:01:24.994Z,36.23
2018-06-11T05:03:52.524Z,34.90
2018-06-11T05:06:20.090Z,33.10
2018-06-11T05:08:47.753Z,37.40
2018-06-11T05:11:15.313Z,37.30
2018-06-11T05:13:48.864Z,34.47
2018-06-11T05:16:16.521Z,35.57
2018-06-11T05:18:44.103Z,34.53
2018-06-11T05:21:11.646Z,36.93
2018-06-11T05:23:39.389Z,38.20
2018-06-11T05:26:06.945Z,35.97
2018-06-11T05:28:34.541Z,38.43
2018-06-11T05:31:02.072Z,37.87
2018-06-11T05:33:29.739Z,40.03
2018-06-11T05:35:57.341Z,36.90
2018-06-11T05:38:25.448Z,36.90
2018-06-11T05:40:53.289Z,38.83
2018-06-11T05:43:20.873Z,39.53
2018-06-11T05:45:48.457Z,37.23
2018-06-11T05:48:16.034Z,39.00
2018-06-11T05:50:43.633Z,45.03
2018-06-11T05:53:11.217Z,49.20
2018-06-11T05:55:38.921Z,40.43
2018-06-11T05:58:06.501Z,39.57
2018-06-11T06:00:34.025Z,45.37
2018-06-11T06:03:01.612Z,44.97
2018-06-11T06:05:29.145Z,42.17
2018-06-11T06:07:56.726Z,43.07
2018-06-11T06:10:24.290Z,44.90
2018-06-11T06:12:51.900Z,50.23
2018-06-11T06:15:19.448Z,50.03
2018-06-11T06:17:47.009Z,53.53
2018-06-11T06:20:14.573Z,50.40
2018-06-11T06:22:42.138Z,57.37
2018-06-11T06:25:09.788Z,50.53
2018-06-11T06:27:37.368Z,45.30
2018-06-11T06:30:05.169Z,38.93
2018-06-11T06:32:32.735Z,40.10
2018-06-11T06:35:00.298Z,43.47
2018-06-11T06:37:27.888Z,43.37
2018-06-11T06:39:55.451Z,46.17
2018-06-11T06:42:23.493Z,44.47
2018-06-11T06:44:51.045Z,46.77
2018-06-11T06:47:18.713Z,47.93
2018-06-11T06:49:46.266Z,49.67
2018-06-11T06:52:13.812Z,55.80
2018-06-11T06:54:41.383Z,49.43
2018-06-11T06:57:08.925Z,55.43
2018-06-11T06:59:36.469Z,47.33
2018-06-11T07:02:04.062Z,50.70
2018-06-11T07:04:31.635Z,47.03
2018-06-11T07:06:59.198Z,41.20
2018-06-11T07:09:26.760Z,43.10
2018-06-11T07:11:54.308Z,42.30
2018-06-11T07:14:22.009Z,43.60
2018-06-11T07:16:49.717Z,49.10
2018-06-11T07:19:17.334Z,44.73
2018-06-11T07:21:44.888Z,44.37
2018-06-11T07:24:12.457Z,44.60
2018-06-11T07:26:40.040Z,46.23
2018-06-11T07:29:08.500Z,43.00
2018-06-11T07:31:36.066Z,39.93
2018-06-11T07:34:03.618Z,44.87
2018-06-11T07:36:31.217Z,45.20
2018-06-11T07:38:58.768Z,43.87
2018-06-11T07:41:26.348Z,50.40
2018-06-11T07:43:53.929Z,46.70
2018-06-11T07:46:21.432Z,57.23
2018-06-11T07:48:49.005Z,45.27
2018-06-11T07:51:16.588Z,44.67
2018-06-11T07:53:44.120Z,51.93
2018-06-11T07:56:11.706Z,48.43
2018-06-11T07:58:39.241Z,48.70
2018-06-11T08:01:06.834Z,46.70
2018-06-11T08:03:34.957Z,50.17
2018-06-11T08:06:02.542Z,47.93
2018-06-11T08:08:30.101Z,43.30
2018-06-11T08:10:57.705Z,39.33
2018-06-11T08:13:25.310Z,44.03
2018-06-11T08:15:52.827Z,42.37
2018-06-11T08:18:20.944Z,43.97
2018-06-11T08:20:48.560Z,43.97
2018-06-11T08:23:16.049Z,45.03
2018-06-11T08:25:43.594Z,46.50
2018-06-11T08:28:11.157Z,40.60
2018-06-11T08:30:38.784Z,38.93
2018-06-11T08:33:06.712Z,44.87
2018-06-11T08:35:34.297Z,36.53
2018-06-11T08:38:02.431Z,40.63
2018-06-11T08:40:30.302Z,34.80
2018-06-11T08:42:57.855Z,37.13
2018-06-11T08:45:25.421Z,34.07
2018-06-11T08:47:52.961Z,38.43
2018-06-11T08:50:20.493Z,36.53
2018-06-11T08:52:48.097Z,31.57
2018-06-11T08:55:15.641Z,32.57
2018-06-11T08:57:43.221Z,30.27
2018-06-11T09:00:10.814Z,34.17
2018-06-11T09:02:38.361Z,30.33
2018-06-11T09:05:05.908Z,29.17
2018-06-11T09:07:33.509Z,29.53
2018-06-11T09:10:01.060Z,28.93
2018-06-11T09:12:28.695Z,29.80
2018-06-11T09:14:56.212Z,28.77
2018-06-11T09:17:23.776Z,28.83
2018-06-11T09:19:51.332Z,32.17
2018-06-11T09:22:18.921Z,31.20
2018-06-11T09:24:46.510Z,31.17
2018-06-11T09:27:14.067Z,28.93
2018-06-11T09:29:41.605Z,29.77
2018-06-11T09:32:09.189Z,29.40
2018-06-11T09:34:36.761Z,27.60
2018-06-11T09:37:04.357Z,26.70
2018-06-11T09:39:32.070Z,26.13
2018-06-11T09:41:59.637Z,27.90
2018-06-11T09:44:27.164Z,27.60
2018-06-11T09:46:54.729Z,25.43
2018-06-11T09:49:22.291Z,26.30
2018-06-11T09:51:49.897Z,29.43
2018-06-11T09:54:17.433Z,30.50
2018-06-11T09:56:44.993Z,28.33
2018-06-11T09:59:12.516Z,29.97
2018-06-11T10:01:40.069Z,28.30
2018-06-11T10:04:07.613Z,30.00
2018-06-11T10:06:35.164Z,27.97
2018-06-11T10:09:03.237Z,30.23
2018-06-11T10:11:30.753Z,31.17
2018-06-11T10:13:58.308Z,33.27
2018-06-11T10:16:25.857Z,31.43
2018-06-11T10:18:53.397Z,29.87
2018-06-11T10:21:20.917Z,28.73
2018-06-11T10:23:48.480Z,30.87
2018-06-11T10:26:16.020Z,27.33
2018-06-11T10:28:43.645Z,24.13
2018-06-11T10:31:11.169Z,28.77
2018-06-11T10:33:38.773Z,24.17
2018-06-11T10:36:06.297Z,22.80
2018-06-11T10:38:34.355Z,23.33
2018-06-11T10:41:01.885Z,22.27
2018-06-11T10:43:29.461Z,18.50
2018-06-11T10:45:57.002Z,17.87
2018-06-11T10:48:24.554Z,19.73
2018-06-11T10:50:52.073Z,22.83
2018-06-11T10:53:19.608Z,24.50
2018-06-11T10:55:47.154Z,19.73
2018-06-11T10:58:14.782Z,18.50
2018-06-11T11:00:42.305Z,20.83
2018-06-11T11:03:09.853Z,16.57
2018-06-11T11:05:37.397Z,19.37
2018-06-11T11:08:04.960Z,17.27
2018-06-11T11:10:32.522Z,19.23
2018-06-11T11:13:00.077Z,21.50
2018-06-11T11:15:27.616Z,21.13
2018-06-11T11:17:55.172Z,19.43
2018-06-11T11:20:22.709Z,19.77
2018-06-11T11:22:50.233Z,17.87
2018-06-11T11:25:17.745Z,17.13
2018-06-11T11:27:45.268Z,20.83
2018-06-11T11:30:12.833Z,15.97
2018-06-11T11:32:40.381Z,16.47
2018-06-11T11:35:07.970Z,19.53
2018-06-11T11:37:35.540Z,17.47
2018-06-11T11:40:03.191Z,18.13
2018-06-11T11:42:30.685Z,18.57
2018-06-11T11:44:58.620Z,14.77
2018-06-11T11:47:26.137Z,15.30
2018-06-11T11:49:54.208Z,13.40
2018-06-11T11:52:21.845Z,12.93
2018-06-11T11:54:49.450Z,12.83
2018-06-11T11:57:17.023Z,12.93
2018-06-11T11:59:44.613Z,13.17
2018-06-11T12:02:12.138Z,11.73
2018-06-11T12:04:39.740Z,9.90
2018-06-11T12:07:07.247Z,9.17
2018-06-11T12:09:34.909Z,11.23
2018-06-11T12:12:02.450Z,11.57
2018-06-11T12:14:30.205Z,9.63
2018-06-11T12:16:57.769Z,9.10
2018-06-11T12:19:25.298Z,8.63
2018-06-11T12:21:53.714Z,9.30
2018-06-11T12:24:21.253Z,10.57
2018-06-11T12:26:48.821Z,11.17
2018-06-11T12:29:16.366Z,11.80
2018-06-11T12:31:43.950Z,9.43
2018-06-11T12:34:12.370Z,12.03
2018-06-11T12:36:40.005Z,10.43
2018-06-11T12:39:07.808Z,12.60
2018-06-11T12:41:35.478Z,10.43
2018-06-11T12:44:03.417Z,10.73
2018-06-11T12:46:30.985Z,11.53
2018-06-11T12:48:58.525Z,12.93
2018-06-11T12:51:26.087Z,12.87
2018-06-11T12:53:53.642Z,10.13
2018-06-11T12:56:21.193Z,9.13
2018-06-11T12:58:48.729Z,9.73
2018-06-11T13:01:16.701Z,9.07
2018-06-11T13:03:44.634Z,9.07
2018-06-11T13:06:12.305Z,10.03
2018-06-11T13:08:39.862Z,9.63
2018-06-11T13:11:07.388Z,9.17
2018-06-11T13:13:34.994Z,8.13
2018-06-11T13:16:02.545Z,8.93
2018-06-11T13:18:30.101Z,7.83
2018-06-11T13:20:57.764Z,9.93
2018-06-11T13:23:25.317Z,14.10
2018-06-11T13:25:52.853Z,11.00
2018-06-11T13:28:21.648Z,9.47
2018-06-11T13:30:49.225Z,8.93
2018-06-11T13:33:18.646Z,10.10
2018-06-11T13:35:46.859Z,8.23
2018-06-11T13:38:14.481Z,10.20
2018-06-11T13:40:42.045Z,8.50
2018-06-11T13:43:09.599Z,9.00
2018-06-11T13:45:40.149Z,7.93
2018-06-11T13:48:07.953Z,10.77
2018-06-11T13:50:35.488Z,9.13
2018-06-11T13:53:03.082Z,11.17
2018-06-11T13:55:30.648Z,7.27
2018-06-11T13:58:00.057Z,8.40
2018-06-11T14:00:29.357Z,8.23
2018-06-11T14:02:56.996Z,9.03
2018-06-11T14:05:24.538Z,8.60
2018-06-11T14:07:52.052Z,9.33
2018-06-11T14:10:19.874Z,7.33
2018-06-11T14:12:47.397Z,8.07
2018-06-11T14:15:14.960Z,7.10
2018-06-11T14:17:42.606Z,6.23
2018-06-11T14:20:10.190Z,8.00
2018-06-11T14:22:37.841Z,7.10
2018-06-11T14:25:05.409Z,9.20
2018-06-11T14:27:32.941Z,7.97
2018-06-11T14:30:00.498Z,8.73
2018-06-11T14:32:28.021Z,7.23
2018-06-11T14:34:55.515Z,7.63
2018-06-11T14:37:23.473Z,6.50
2018-06-11T14:39:51.041Z,6.07
2018-06-11T14:42:18.895Z,7.50
2018-06-11T14:44:46.834Z,6.80
2018-06-11T14:47:14.359Z,6.70
2018-06-11T14:49:41.931Z,6.70
2018-06-11T14:52:09.896Z,7.37
2018-06-11T14:54:37.453Z,7.30
2018-06-11T14:57:05.617Z,6.77
2018-06-11T14:59:33.192Z,8.77
2018-06-11T15:02:00.758Z,7.60
2018-06-11T15:04:29.658Z,7.17
2018-06-11T15:06:57.190Z,7.47
2018-06-11T15:09:24.824Z,6.03
2018-06-11T15:11:52.449Z,6.13
2018-06-11T15:14:19.988Z,6.70
2018-06-11T15:16:47.583Z,6.83
2018-06-11T15:19:15.118Z,9.67
2018-06-11T15:21:42.878Z,6.10
2018-06-11T15:24:10.416Z,6.40
2018-06-11T15:26:38.022Z,7.17
2018-06-11T15:29:05.725Z,7.63
2018-06-11T15:31:33.331Z,6.53
2018-06-11T15:34:00.961Z,6.60
2018-06-11T15:36:28.873Z,8.70
2018-06-11T15:38:56.417Z,6.30
2018-06-11T15:41:23.989Z,6.33
2018-06-11T15:43:51.514Z,6.63
2018-06-11T15:46:19.359Z,9.47
2018-06-11T15:49:01.896Z,7.40
2018-06-11T15:51:29.485Z,6.70
2018-06-11T15:53:57.026Z,7.10
2018-06-11T15:56:26.366Z,7.20
2018-06-11T15:58:53.881Z,7.93
2018-06-11T16:01:21.609Z,7.40
2018-06-11T16:03:49.154Z,7.43
2018-06-11T16:06:16.893Z,7.43
2018-06-11T16:08:45.196Z,8.17
2018-06-11T16:11:12.731Z,9.87
2018-06-11T16:13:40.295Z,7.60
2018-06-11T16:16:08.017Z,7.30
2018-06-11T16:18:35.638Z,7.37
2018-06-11T16:21:03.305Z,8.83
2018-06-11T16:23:30.864Z,7.93
2018-06-11T16:25:58.409Z,9.90
2018-06-11T16:28:25.968Z,7.83
2018-06-11T16:30:53.593Z,9.90
2018-06-11T16:33:21.154Z,15.97
2018-06-11T16:35:49.185Z,16.70
2018-06-11T16:38:16.736Z,13.40
2018-06-11T16:40:44.375Z,8.93
2018-06-11T16:43:11.931Z,8.10
2018-06-11T16:45:39.465Z,8.63
2018-06-11T16:48:07.061Z,11.97
2018-06-11T16:50:34.663Z,23.20
2018-06-11T16:53:02.963Z,12.50
2018-06-11T16:55:30.549Z,8.80
2018-06-11T16:57:58.185Z,10.17
2018-06-11T17:00:25.778Z,9.57
2018-06-11T17:02:54.459Z,9.40
2018-06-11T17:05:22.005Z,9.57
2018-06-11T17:07:50.837Z,9.53
2018-06-11T17:10:19.465Z,9.00
2018-06-11T17:12:47.145Z,8.00
2018-06-11T17:15:14.709Z,9.33
2018-06-11T17:17:42.285Z,9.17
2018-06-11T17:20:09.907Z,7.87
2018-06-11T17:22:37.495Z,7.90
2018-06-11T17:25:05.072Z,7.77
2018-06-11T17:27:32.622Z,8.93
2018-06-11T17:30:00.202Z,8.27
2018-06-11T17:32:27.913Z,6.60
2018-06-11T17:34:55.617Z,5.93
2018-06-11T17:37:23.155Z,24.53
2018-06-11T17:39:50.925Z,15.13
2018-06-11T17:42:18.468Z,9.60
2018-06-11T17:44:46.174Z,6.57
2018-06-11T17:47:13.695Z,9.03
2018-06-11T17:49:41.266Z,7.37
2018-06-11T17:52:08.821Z,5.40
2018-06-11T17:54:36.434Z,7.40
2018-06-11T17:57:03.985Z,5.67
2018-06-11T17:59:31.566Z,6.87
2018-06-11T18:01:59.134Z,6.30
2018-06-11T18:04:26.792Z,5.97
2018-06-11T18:06:55.360Z,5.20
2018-06-11T18:09:22.925Z,5.03
2018-06-11T18:11:50.490Z,5.67
2018-06-11T18:14:18.090Z,5.33
2018-06-11T18:16:45.693Z,5.73
2018-06-11T18:19:13.270Z,5.70
2018-06-11T18:21:41.245Z,7.37
2018-06-11T18:24:08.773Z,7.30
2018-06-11T18:26:37.065Z,6.83
2018-06-11T18:29:04.654Z,19.90
2018-06-11T18:31:36.285Z,22.93
2018-06-11T18:34:04.009Z,32.53
2018-06-11T18:36:31.550Z,19.70
2018-06-11T18:38:59.063Z,10.10
2018-06-11T18:41:26.660Z,10.40
2018-06-11T18:43:54.353Z,8.93
2018-06-11T18:46:21.929Z,8.03
2018-06-11T18:48:49.731Z,8.17
2018-06-11T18:51:17.392Z,8.30
2018-06-11T18:53:45.021Z,8.33
2018-06-11T18:56:12.577Z,8.77
2018-06-11T18:58:40.174Z,7.60
2018-06-11T19:01:07.764Z,8.13
2018-06-11T19:03:39.249Z,8.57
2018-06-11T19:06:06.825Z,8.50
2018-06-11T19:08:34.353Z,10.73
2018-06-11T19:11:01.966Z,9.30
2018-06-11T19:13:30.489Z,8.67
2018-06-11T19:15:58.076Z,8.53
2018-06-11T19:18:25.638Z,7.90
2018-06-11T19:20:53.200Z,7.60
2018-06-11T19:23:20.856Z,9.80
2018-06-11T19:25:48.401Z,8.53
2018-06-11T19:28:15.934Z,9.40
2018-06-11T19:30:43.991Z,8.70
2018-06-11T19:33:11.529Z,8.70
2018-06-11T19:35:39.047Z,8.17
2018-06-11T19:38:07.489Z,8.63
2018-06-11T19:40:35.022Z,8.70
2018-06-11T19:43:02.689Z,8.67
2018-06-11T19:45:30.329Z,8.63
2018-06-11T19:47:58.017Z,11.77
2018-06-11T19:50:26.074Z,34.80
2018-06-11T19:52:53.605Z,179.57
2018-06-11T19:55:21.130Z,20.93
2018-06-11T19:57:48.685Z,11.20
2018-06-11T20:00:16.261Z,11.70
2018-06-11T20:02:43.809Z,26.20
2018-06-11T20:05:11.384Z,18.33
2018-06-11T20:07:39.337Z,11.13
2018-06-11T20:10:06.905Z,10.87
2018-06-11T20:12:34.469Z,9.53
2018-06-11T20:15:02.129Z,9.93
2018-06-11T20:17:30.621Z,10.30
2018-06-11T20:19:58.229Z,10.77
2018-06-11T20:22:25.962Z,11.40
2018-06-11T20:24:53.482Z,12.50
2018-06-11T20:27:21.068Z,14.00
2018-06-11T20:29:48.977Z,14.03
2018-06-11T20:32:20.177Z,13.53
2018-06-11T20:34:48.015Z,14.17
2018-06-11T20:37:15.893Z,13.73
2018-06-11T20:39:43.475Z,13.23
2018-06-11T20:42:11.032Z,14.40
2018-06-11T20:44:38.568Z,13.03
2018-06-11T20:47:06.157Z,14.63
2018-06-11T20:49:33.720Z,14.13
2018-06-11T20:52:01.290Z,16.13
2018-06-11T20:54:28.826Z,13.40
2018-06-11T20:56:56.461Z,13.40
2018-06-11T20:59:24.041Z,14.57
2018-06-11T21:01:51.595Z,13.57
2018-06-11T21:04:19.257Z,16.00
2018-06-11T21:06:46.825Z,14.87
2018-06-11T21:09:14.678Z,14.70
2018-06-11T21:11:42.305Z,14.40
2018-06-11T21:14:09.987Z,15.80
2018-06-11T21:16:38.314Z,13.90
2018-06-11T21:19:05.997Z,15.83
2018-06-11T21:21:33.977Z,14.10
2018-06-11T21:24:01.569Z,12.97
2018-06-11T21:26:29.119Z,16.87
2018-06-11T21:28:59.610Z,20.47
2018-06-11T21:31:27.354Z,16.47
2018-06-11T21:33:55.051Z,14.97
2018-06-11T21:36:22.594Z,15.97
2018-06-11T21:38:50.274Z,17.23
2018-06-11T21:41:17.789Z,16.20
2018-06-11T21:43:45.328Z,15.43
2018-06-11T21:46:12.898Z,17.93
2018-06-11T21:48:40.477Z,20.57
2018-06-11T21:51:07.998Z,18.43
2018-06-11T21:53:35.565Z,18.17
2018-06-11T21:56:03.202Z,19.83
2018-06-11T21:58:30.782Z,17.63
2018-06-11T22:00:58.427Z,19.37
2018-06-11T22:03:26.431Z,16.23
2018-06-11T22:05:53.957Z,17.10
2018-06-11T22:08:21.501Z,20.73
2018-06-11T22:10:49.427Z,19.03
2018-06-11T22:13:17.094Z,17.07
2018-06-11T22:15:44.633Z,16.97
2018-06-11T22:18:12.198Z,17.83
2018-06-11T22:20:39.753Z,19.93
2018-06-11T22:23:07.313Z,16.97
2018-06-11T22:25:34.890Z,16.93
2018-06-11T22:28:02.605Z,18.20
2018-06-11T22:30:30.512Z,18.83
2018-06-11T22:32:57.997Z,21.83
2018-06-11T22:35:25.541Z,17.87
2018-06-11T22:37:53.105Z,17.93
2018-06-11T22:40:20.649Z,20.90
2018-06-11T22:42:48.194Z,20.23
2018-06-11T22:45:15.765Z,22.37
2018-06-11T22:47:43.309Z,21.00
2018-06-11T22:50:10.853Z,21.37
2018-06-11T22:52:38.361Z,19.97
2018-06-11T22:55:05.929Z,18.63
2018-06-11T22:57:33.486Z,24.37
2018-06-11T23:00:01.046Z,18.87
2018-06-11T23:02:28.661Z,20.33
2018-06-11T23:04:56.230Z,23.50
2018-06-11T23:07:23.765Z,22.00
2018-06-11T23:09:51.317Z,20.23
2018-06-11T23:12:18.838Z,20.77
2018-06-11T23:14:46.398Z,21.90
2018-06-11T23:17:13.978Z,22.57
2018-06-11T23:19:41.521Z,22.03
2018-06-11T23:22:09.037Z,22.50
2018-06-11T23:24:36.590Z,21.80
2018-06-11T23:27:04.159Z,24.57
2018-06-11T23:29:31.709Z,24.53
2018-06-11T23:31:59.233Z,19.77
2018-06-11T23:34:26.809Z,28.00
2018-06-11T23:36:54.356Z,20.90
2018-06-11T23:39:21.946Z,20.33
2018-06-11T23:41:49.469Z,19.87
2018-06-11T23:44:17.070Z,21.30
2018-06-11T23:46:44.961Z,19.73
2018-06-11T23:49:13.321Z,22.77
2018-06-11T23:51:40.846Z,23.47
2018-06-11T23:54:08.456Z,20.07
2018-06-11T23:56:35.970Z,22.67
2018-06-11T23:59:04.432Z,20.93
